createdAt,value
2022-08-12T00:00:50.992Z,17.16
2022-08-12T00:04:14.876Z,17.24
2022-08-12T00:07:36.865Z,17.61
2022-08-12T00:10:59.134Z,17.89
2022-08-12T00:14:30.876Z,17.82
2022-08-12T00:17:54.670Z,17.95
2022-08-12T00:21:18.255Z,17.84
2022-08-12T00:24:42.538Z,17.86
2022-08-12T00:28:05.313Z,17.92
2022-08-12T00:31:28.929Z,17.54
2022-08-12T00:34:52.563Z,17.68
2022-08-12T00:38:15.938Z,17.65
2022-08-12T00:41:40.123Z,17.51
2022-08-12T00:44:48.219Z,17.13
2022-08-12T00:47:55.469Z,16.93
2022-08-12T00:51:03.319Z,16.80
2022-08-12T00:54:08.964Z,16.91
2022-08-12T00:57:15.883Z,16.71
2022-08-12T01:00:23.247Z,16.89
2022-08-12T01:03:49.151Z,16.97
2022-08-12T01:07:13.805Z,16.66
2022-08-12T01:10:37.618Z,16.16
2022-08-12T01:13:45.120Z,16.68
2022-08-12T01:16:49.874Z,16.80
2022-08-12T01:19:57.276Z,16.33
2022-08-12T01:23:20.891Z,16.07
2022-08-12T01:26:28.963Z,16.57
2022-08-12T01:29:35.228Z,16.91
2022-08-12T01:32:42.628Z,16.71
2022-08-12T01:36:08.020Z,16.73
2022-08-12T01:39:16.960Z,17.01
2022-08-12T01:42:25.525Z,16.76
2022-08-12T01:45:42.917Z,16.77
2022-08-12T01:49:12.584Z,16.69
2022-08-12T01:52:30.293Z,16.87
2022-08-12T01:55:37.536Z,17.05
2022-08-12T01:58:59.369Z,16.75
2022-08-12T02:02:08.752Z,16.88
2022-08-12T02:05:41.162Z,17.20
2022-08-12T02:09:17.329Z,17.16
2022-08-12T02:12:35.757Z,17.04
2022-08-12T02:15:50.696Z,17.39
2022-08-12T02:19:22.864Z,17.53
2022-08-12T02:22:30.587Z,17.61
2022-08-12T02:25:38.323Z,17.24
2022-08-12T02:28:42.975Z,17.18
2022-08-12T02:31:51.026Z,17.30
2022-08-12T02:34:57.724Z,17.33
2022-08-12T02:38:05.181Z,17.17
2022-08-12T02:41:12.915Z,16.62
2022-08-12T02:44:24.394Z,16.84
2022-08-12T02:47:58.155Z,17.04
2022-08-12T02:51:06.029Z,16.99
2022-08-12T02:54:13.761Z,16.94
2022-08-12T02:57:20.479Z,16.32
2022-08-12T03:00:25.364Z,16.63
2022-08-12T03:03:33.629Z,16.92
2022-08-12T03:06:45.496Z,16.86
2022-08-12T03:10:04.462Z,16.42
2022-08-12T03:13:12.673Z,16.33
2022-08-12T03:16:19.108Z,16.00
2022-08-12T03:19:25.949Z,15.80
2022-08-12T03:22:32.252Z,15.66
2022-08-12T03:25:40.347Z,15.74
2022-08-12T03:28:54.493Z,16.18
2022-08-12T03:32:04.804Z,15.93
2022-08-12T03:35:40.874Z,15.68
2022-08-12T03:38:43.346Z,15.78
2022-08-12T03:41:57.962Z,15.41
2022-08-12T03:45:50.081Z,15.63
2022-08-12T03:49:15.754Z,15.83
2022-08-12T03:52:38.596Z,15.07
2022-08-12T03:56:01.037Z,15.53
2022-08-12T03:59:24.706Z,15.83
2022-08-12T04:02:34.683Z,15.81
2022-08-12T04:05:55.322Z,15.76
2022-08-12T04:09:01.756Z,16.01
2022-08-12T04:12:27.429Z,16.30
2022-08-12T04:15:37.033Z,16.22
2022-08-12T04:18:42.486Z,16.20
2022-08-12T04:22:02.457Z,16.16
2022-08-12T04:25:14.070Z,16.57
2022-08-12T04:28:17.834Z,16.91
2022-08-12T04:31:32.022Z,17.05
2022-08-12T04:34:38.316Z,17.10
2022-08-12T04:37:58.627Z,17.00
2022-08-12T04:41:06.868Z,17.57
2022-08-12T04:44:11.598Z,17.92
2022-08-12T04:47:16.630Z,18.24
2022-08-12T04:50:33.871Z,18.76
2022-08-12T04:53:39.442Z,19.22
2022-08-12T04:57:03.066Z,19.38
2022-08-12T05:00:11.457Z,18.98
2022-08-12T05:03:15.411Z,19.57
2022-08-12T05:06:26.402Z,19.79
2022-08-12T05:09:59.237Z,20.07
2022-08-12T05:13:01.287Z,20.31
2022-08-12T05:16:09.760Z,20.67
2022-08-12T05:19:18.623Z,20.80
2022-08-12T05:22:27.503Z,21.02
2022-08-12T05:25:31.196Z,21.01
2022-08-12T05:28:38.399Z,20.83
2022-08-12T05:31:48.045Z,20.89
2022-08-12T05:34:53.722Z,21.17
2022-08-12T05:38:11.292Z,21.49
2022-08-12T05:41:20.661Z,21.74
2022-08-12T05:44:25.956Z,21.97
2022-08-12T05:47:40.688Z,22.20
2022-08-12T05:50:55.402Z,22.16
2022-08-12T05:54:00.256Z,22.22
2022-08-12T05:57:04.491Z,22.32
2022-08-12T06:00:11.266Z,22.23
2022-08-12T06:03:19.382Z,22.14
2022-08-12T06:06:27.680Z,22.17
2022-08-12T06:09:31.600Z,22.40
2022-08-12T06:12:35.502Z,22.39
2022-08-12T06:15:41.237Z,22.53
2022-08-12T06:18:46.749Z,22.65
2022-08-12T06:21:51.793Z,23.14
2022-08-12T06:24:56.719Z,23.45
2022-08-12T06:28:07.391Z,23.71
2022-08-12T06:31:27.035Z,23.86
2022-08-12T06:35:25.314Z,24.15
2022-08-12T06:38:03.801Z,24.66
2022-08-12T06:41:24.434Z,24.74
2022-08-12T06:44:28.678Z,25.11
2022-08-12T06:47:37.802Z,25.66
2022-08-12T06:50:44.577Z,26.04
2022-08-12T06:53:50.676Z,26.24
2022-08-12T06:58:06.140Z,26.79
2022-08-12T07:00:22.625Z,26.91
2022-08-12T07:03:37.673Z,27.05
2022-08-12T07:06:44.156Z,27.16
2022-08-12T07:10:04.681Z,27.24
2022-08-12T07:13:11.491Z,27.55
2022-08-12T07:16:17.556Z,27.84
2022-08-12T07:19:22.947Z,27.62
2022-08-12T07:22:27.447Z,27.92
2022-08-12T07:25:41.141Z,27.89
2022-08-12T07:28:50.713Z,28.35
2022-08-12T07:31:54.923Z,28.59
2022-08-12T07:35:00.998Z,29.05
2022-08-12T07:38:04.723Z,29.46
2022-08-12T07:41:15.694Z,29.76
2022-08-12T07:44:19.607Z,29.95
2022-08-12T07:47:23.741Z,30.43
2022-08-12T07:50:28.934Z,30.69
2022-08-12T07:53:47.709Z,31.01
2022-08-12T07:57:01.220Z,30.89
2022-08-12T08:00:06.823Z,30.50
2022-08-12T08:03:17.164Z,30.46
2022-08-12T08:06:22.568Z,30.37
2022-08-12T08:09:26.151Z,30.31
2022-08-12T08:12:48.770Z,30.17
2022-08-12T08:16:03.479Z,30.70
2022-08-12T08:19:08.559Z,30.71
2022-08-12T08:22:13.562Z,30.69
2022-08-12T08:25:34.264Z,30.66
2022-08-12T08:28:40.452Z,30.27
2022-08-12T08:31:50.404Z,30.21
2022-08-12T08:34:54.879Z,30.30
2022-08-12T08:38:11.464Z,30.11
2022-08-12T08:42:16.577Z,30.02
2022-08-12T08:44:58.912Z,29.90
2022-08-12T08:48:04.548Z,29.81
2022-08-12T08:51:08.470Z,29.75
2022-08-12T08:54:15.505Z,29.57
2022-08-12T08:57:22.495Z,29.48
2022-08-12T09:00:26.368Z,29.52
2022-08-12T09:05:07.460Z,29.62
2022-08-12T09:06:56.745Z,29.54
2022-08-12T09:10:04.229Z,29.14
2022-08-12T09:13:29.241Z,29.13
2022-08-12T09:16:51.307Z,29.35
2022-08-12T09:24:00.313Z,29.12
2022-08-12T09:26:55.637Z,29.05
2022-08-12T09:30:10.867Z,29.22
2022-08-12T09:34:24.577Z,29.06
2022-08-12T09:37:00.488Z,28.96
2022-08-12T09:40:58.083Z,29.02
2022-08-12T09:43:53.924Z,29.17
2022-08-12T09:47:04.511Z,29.29
2022-08-12T09:50:20.327Z,29.34
2022-08-12T09:53:36.599Z,29.34
2022-08-12T09:56:59.778Z,29.30
2022-08-12T10:00:12.782Z,29.41
2022-08-12T10:03:31.816Z,29.51
2022-08-12T10:06:55.269Z,29.73
2022-08-12T10:10:02.435Z,29.57
2022-08-12T10:13:38.113Z,29.75
2022-08-12T10:16:49.434Z,30.00
2022-08-12T10:19:53.947Z,30.05
2022-08-12T10:23:00.267Z,30.22
2022-08-12T10:26:36.997Z,30.31
2022-08-12T10:30:37.105Z,30.28
2022-08-12T10:33:18.270Z,30.08
2022-08-12T10:36:36.146Z,30.13
2022-08-12T10:40:02.094Z,30.04
2022-08-12T10:43:27.920Z,29.82
2022-08-12T10:46:33.208Z,29.70
2022-08-12T10:50:02.280Z,29.64
2022-08-12T10:53:09.531Z,29.37
2022-08-12T10:56:13.635Z,29.36
2022-08-12T10:59:17.801Z,29.45
2022-08-12T11:04:22.844Z,29.49
2022-08-12T11:07:08.843Z,29.32
2022-08-12T11:10:00.751Z,29.35
2022-08-12T11:13:08.389Z,29.49
2022-08-12T11:16:18.994Z,29.67
2022-08-12T11:19:26.365Z,29.45
2022-08-12T11:22:37.265Z,29.50
2022-08-12T11:25:56.849Z,29.53
2022-08-12T11:29:06.070Z,29.55
2022-08-12T11:32:27.290Z,29.66
2022-08-12T11:35:36.441Z,29.59
2022-08-12T11:38:43.202Z,29.44
2022-08-12T11:41:56.056Z,29.55
2022-08-12T11:45:05.087Z,29.56
2022-08-12T11:48:09.318Z,29.49
2022-08-12T11:51:19.240Z,29.65
2022-08-12T11:54:26.684Z,29.95
2022-08-12T11:58:51.224Z,30.08
2022-08-12T12:04:28.880Z,30.17
2022-08-12T12:08:41.760Z,30.28
2022-08-12T12:10:59.387Z,30.48
2022-08-12T12:14:07.301Z,30.39
2022-08-12T12:17:16.774Z,30.43
2022-08-12T12:20:20.878Z,30.62
2022-08-12T12:23:30.917Z,30.56
2022-08-12T12:26:42.182Z,30.73
2022-08-12T12:30:18.042Z,30.90
2022-08-12T12:33:17.667Z,30.64
2022-08-12T12:36:30.241Z,30.45
2022-08-12T12:39:54.739Z,30.43
2022-08-12T12:43:05.234Z,29.89
2022-08-12T12:46:09.681Z,29.76
2022-08-12T12:49:15.245Z,30.18
2022-08-12T12:52:21.350Z,30.33
2022-08-12T12:55:26.123Z,30.13
2022-08-12T12:58:43.520Z,30.33
2022-08-12T13:01:47.850Z,30.23
2022-08-12T13:04:54.548Z,30.30
2022-08-12T13:08:04.061Z,30.34
2022-08-12T13:11:11.044Z,30.47
2022-08-12T13:14:27.913Z,29.93
2022-08-12T13:18:03.131Z,30.00
2022-08-12T13:20:59.373Z,29.92
2022-08-12T13:24:10.558Z,30.13
2022-08-12T13:27:19.203Z,30.28
2022-08-12T13:30:28.386Z,29.93
2022-08-12T13:34:32.795Z,30.11
2022-08-12T13:36:57.424Z,30.18
2022-08-12T13:40:01.182Z,30.25
2022-08-12T13:43:07.072Z,30.36
2022-08-12T13:46:15.474Z,29.77
2022-08-12T13:49:55.144Z,30.07
2022-08-12T13:52:43.568Z,29.82
2022-08-12T13:55:59.542Z,29.62
2022-08-12T13:59:07.865Z,29.62
2022-08-12T14:02:14.746Z,29.61
2022-08-12T14:05:37.533Z,29.41
2022-08-12T14:08:45.005Z,29.26
2022-08-12T14:11:59.567Z,29.34
2022-08-12T14:15:05.017Z,29.25
2022-08-12T14:18:15.893Z,29.05
2022-08-12T14:21:22.451Z,29.04
2022-08-12T14:24:27.045Z,28.79
2022-08-12T14:28:03.707Z,29.08
2022-08-12T14:31:00.181Z,28.97
2022-08-12T14:34:06.544Z,29.07
2022-08-12T14:37:13.127Z,28.84
2022-08-12T14:40:34.355Z,29.08
2022-08-12T14:43:44.291Z,29.20
2022-08-12T14:47:07.492Z,29.30
2022-08-12T14:50:37.281Z,29.17
2022-08-12T14:57:20.300Z,29.04
2022-08-12T15:00:52.345Z,29.23
2022-08-12T15:03:58.544Z,29.35
2022-08-12T15:07:03.990Z,29.21
2022-08-12T15:10:08.361Z,29.22
2022-08-12T15:13:13.850Z,29.38
2022-08-12T15:16:18.882Z,29.39
2022-08-12T15:20:30.720Z,29.51
2022-08-12T15:22:53.599Z,29.52
2022-08-12T15:26:03.343Z,29.32
2022-08-12T15:29:07.531Z,29.44
2022-08-12T15:32:15.888Z,29.26
2022-08-12T15:35:20.374Z,29.15
2022-08-12T15:38:28.305Z,29.31
2022-08-12T15:41:50.039Z,29.33
2022-08-12T15:44:55.627Z,29.37
2022-08-12T15:48:16.105Z,29.31
2022-08-12T15:51:57.521Z,29.28
2022-08-12T15:54:58.480Z,29.15
2022-08-12T15:58:04.213Z,29.04
2022-08-12T16:01:12.274Z,29.18
2022-08-12T16:04:19.066Z,29.17
2022-08-12T16:07:29.891Z,29.26
2022-08-12T16:10:38.398Z,29.14
2022-08-12T16:13:44.119Z,28.79
2022-08-12T16:16:49.131Z,28.89
2022-08-12T16:20:03.244Z,28.74
2022-08-12T16:23:26.241Z,29.00
2022-08-12T16:26:35.070Z,28.87
2022-08-12T16:29:52.350Z,28.74
2022-08-12T16:32:59.580Z,28.96
2022-08-12T16:36:13.339Z,29.02
2022-08-12T16:39:24.475Z,29.05
2022-08-12T16:42:29.812Z,29.12
2022-08-12T16:46:24.041Z,29.17
2022-08-12T16:49:04.174Z,29.17
2022-08-12T16:52:14.609Z,29.26
2022-08-12T16:55:20.611Z,29.04
2022-08-12T16:58:30.685Z,29.01
2022-08-12T17:01:37.684Z,29.06
2022-08-12T17:04:52.924Z,29.05
2022-08-12T17:07:57.688Z,29.11
2022-08-12T17:11:01.140Z,29.11
2022-08-12T17:14:08.493Z,28.88
2022-08-12T17:17:18.563Z,29.00
2022-08-12T17:20:36.580Z,28.74
2022-08-12T17:23:53.406Z,28.60
2022-08-12T17:26:58.486Z,28.57
2022-08-12T17:30:05.526Z,28.58
2022-08-12T17:33:13.988Z,28.45
2022-08-12T17:36:21.664Z,28.50
2022-08-12T17:40:06.752Z,28.47
2022-08-12T17:42:57.478Z,28.49
2022-08-12T17:46:03.630Z,28.45
2022-08-12T17:50:01.478Z,28.47
2022-08-12T17:52:38.770Z,28.30
2022-08-12T17:55:48.140Z,28.18
2022-08-12T17:58:58.168Z,27.94
2022-08-12T18:02:07.285Z,27.97
2022-08-12T18:05:11.260Z,27.94
2022-08-12T18:08:18.031Z,27.78
2022-08-12T18:12:06.323Z,27.62
2022-08-12T18:15:26.227Z,27.56
2022-08-12T18:18:38.606Z,27.47
2022-08-12T18:22:01.541Z,27.13
2022-08-12T18:26:12.773Z,26.99
2022-08-12T18:28:40.687Z,26.95
2022-08-12T18:31:58.806Z,26.88
2022-08-12T18:35:10.514Z,27.01
2022-08-12T18:38:18.429Z,26.88
2022-08-12T18:41:34.248Z,26.95
2022-08-12T18:44:39.911Z,27.05
2022-08-12T18:47:51.941Z,26.95
2022-08-12T18:51:10.561Z,27.05
2022-08-12T18:54:27.401Z,27.10
2022-08-12T18:58:06.794Z,27.12
2022-08-12T19:00:59.239Z,26.95
2022-08-12T19:04:06.553Z,26.91
2022-08-12T19:07:19.333Z,27.05
2022-08-12T19:10:24.628Z,27.04
2022-08-12T19:13:48.215Z,26.95
2022-08-12T19:16:52.573Z,26.96
2022-08-12T19:19:57.258Z,26.95
2022-08-12T19:23:08.240Z,26.92
2022-08-12T19:26:26.963Z,26.94
2022-08-12T19:29:39.719Z,26.98
2022-08-12T19:32:48.957Z,26.66
2022-08-12T19:36:24.726Z,26.71
2022-08-12T19:39:25.807Z,26.78
2022-08-12T19:42:36.178Z,26.44
2022-08-12T19:45:48.756Z,26.51
2022-08-12T19:48:58.412Z,26.51
2022-08-12T19:52:12.255Z,26.42
2022-08-12T19:55:30.169Z,26.27
2022-08-12T19:58:42.051Z,26.30
2022-08-12T20:02:02.229Z,26.31
2022-08-12T20:06:03.227Z,26.28
2022-08-12T20:08:36.258Z,26.18
2022-08-12T20:12:11.830Z,25.85
2022-08-12T20:15:14.233Z,25.96
2022-08-12T20:18:19.255Z,25.85
2022-08-12T20:21:43.901Z,25.93
2022-08-12T20:24:49.663Z,25.84
2022-08-12T20:28:05.524Z,25.87
2022-08-12T20:31:12.114Z,25.82
2022-08-12T20:34:17.973Z,25.85
2022-08-12T20:38:06.906Z,25.85
2022-08-12T20:40:57.781Z,25.67
2022-08-12T20:44:03.683Z,25.76
2022-08-12T20:47:19.409Z,25.74
2022-08-12T20:50:27.515Z,25.86
2022-08-12T20:53:57.792Z,25.93
2022-08-12T20:57:01.221Z,25.80
2022-08-12T21:00:16.758Z,25.78
2022-08-12T21:03:37.873Z,25.73
2022-08-12T21:06:58.251Z,25.66
2022-08-12T21:10:12.584Z,25.71
2022-08-12T21:13:20.464Z,25.66
2022-08-12T21:16:31.434Z,25.71
2022-08-12T21:19:52.864Z,25.67
2022-08-12T21:22:59.310Z,25.66
2022-08-12T21:26:11.364Z,25.59
2022-08-12T21:29:23.839Z,25.37
2022-08-12T21:32:40.697Z,25.33
2022-08-12T21:35:45.043Z,25.36
2022-08-12T21:38:59.598Z,25.15
2022-08-12T21:42:07.500Z,25.20
2022-08-12T21:45:46.867Z,25.23
2022-08-12T21:48:40.150Z,25.26
2022-08-12T21:51:49.245Z,25.18
2022-08-12T21:54:56.387Z,25.24
2022-08-12T21:58:11.329Z,25.16
2022-08-12T22:01:22.759Z,25.21
2022-08-12T22:04:49.962Z,25.12
2022-08-12T22:08:00.764Z,24.78
2022-08-12T22:11:05.187Z,25.03
2022-08-12T22:14:17.867Z,25.09
2022-08-12T22:17:49.569Z,25.06
2022-08-12T22:20:56.861Z,25.01
2022-08-12T22:24:05.798Z,24.94
2022-08-12T22:27:28.596Z,24.90
2022-08-12T22:30:54.479Z,24.83
2022-08-12T22:34:00.324Z,24.79
2022-08-12T22:37:11.476Z,24.91
2022-08-12T22:40:24.092Z,24.96
2022-08-12T22:44:00.522Z,24.80
2022-08-12T22:47:53.595Z,24.84
2022-08-12T22:50:47.661Z,24.62
2022-08-12T22:53:56.781Z,24.56
2022-08-12T22:57:05.308Z,24.35
2022-08-12T23:00:24.259Z,24.47
2022-08-12T23:03:49.190Z,24.42
2022-08-12T23:06:58.454Z,24.18
2022-08-12T23:10:12.675Z,24.27
2022-08-12T23:13:43.435Z,24.24
2022-08-12T23:16:52.353Z,24.14
2022-08-12T23:19:56.330Z,23.98
2022-08-12T23:23:08.878Z,24.08
2022-08-12T23:26:14.516Z,24.06
2022-08-12T23:29:25.966Z,23.99
2022-08-12T23:32:35.614Z,24.10
2022-08-12T23:35:45.505Z,24.06
2022-08-12T23:39:01.629Z,24.03
2022-08-12T23:42:17.880Z,24.10
2022-08-12T23:45:32.033Z,24.01
2022-08-12T23:48:40.039Z,23.62
2022-08-12T23:51:44.796Z,23.82
2022-08-12T23:54:58.405Z,23.94
2022-08-12T23:58:25.882Z,23.95
